Time;durP1;ratioP1;P1;durP2;ratioP2;P2;SDS_P1;SDS_P2;PMS_P1;PMS_P2;Temp;Humidity;BMP_temperature;BMP_pressure;BME280_temperature;BME280_humidity;BME280_pressure;Samples;Min_cycle;Max_cycle;Signal;HPM_P1;HPM_P2
2022/03/07 00:01:32;;;;;;;3.28;3.00;;;2.00;96.50;;;;;;5003000;28;20055;-49
2022/03/07 00:03:57;;;;;;;6.20;3.60;;;2.00;96.70;;;;;;4993975;28;20042;-51
2022/03/07 00:06:24;;;;;;;6.30;3.20;;;2.00;96.70;;;;;;4993919;28;20038;-49
2022/03/07 00:08:49;;;;;;;5.60;3.70;;;2.00;96.90;;;;;;4993624;28;20456;-52
2022/03/07 00:11:16;;;;;;;9.27;5.50;;;2.10;96.90;;;;;;4996590;28;20314;-52
2022/03/07 00:13:43;;;;;;;6.97;4.05;;;2.10;97.00;;;;;;4993729;28;20193;-53
2022/03/07 00:16:08;;;;;;;8.15;4.22;;;2.10;97.00;;;;;;4995986;28;20100;-53
2022/03/07 00:18:34;;;;;;;5.20;4.53;;;2.10;97.00;;;;;;4995061;28;20439;-53
2022/03/07 00:20:59;;;;;;;6.07;4.00;;;2.00;97.00;;;;;;4993959;28;20062;-53
2022/03/07 00:23:25;;;;;;;6.28;4.80;;;2.00;97.10;;;;;;4994797;28;20029;-53
2022/03/07 00:25:50;;;;;;;8.10;4.45;;;2.00;97.20;;;;;;4995023;28;20041;-51
2022/03/07 00:28:16;;;;;;;5.47;4.15;;;2.00;97.20;;;;;;4995569;28;20038;-50
2022/03/07 00:30:42;;;;;;;6.50;4.78;;;2.00;97.20;;;;;;4993947;28;20117;-53
2022/03/07 00:33:08;;;;;;;5.13;3.83;;;2.00;96.90;;;;;;4993422;28;20389;-50
2022/03/07 00:35:33;;;;;;;5.43;4.40;;;2.00;96.90;;;;;;4998290;28;20133;-52
2022/03/07 00:37:59;;;;;;;6.18;4.00;;;2.00;96.90;;;;;;4996489;28;20041;-50
2022/03/07 00:40:25;;;;;;;4.32;3.90;;;2.00;96.60;;;;;;4993699;28;20435;-53
2022/03/07 00:42:50;;;;;;;7.00;4.93;;;2.00;96.60;;;;;;4999993;28;20073;-51
2022/03/07 00:45:17;;;;;;;6.57;4.57;;;2.00;96.70;;;;;;4993768;28;20085;-49
2022/03/07 00:47:42;;;;;;;5.95;4.55;;;2.00;96.70;;;;;;4993487;28;20045;-51
2022/03/07 00:50:08;;;;;;;5.75;3.70;;;2.00;96.70;;;;;;5020686;23;20099;-51
2022/03/07 00:52:34;;;;;;;6.25;4.55;;;2.00;96.80;;;;;;5030063;28;20432;-52
2022/03/07 00:54:59;;;;;;;5.00;4.28;;;2.00;96.90;;;;;;5029100;28;20089;-51
2022/03/07 00:57:25;;;;;;;5.10;4.53;;;2.00;96.80;;;;;;5028852;28;20030;-53
2022/03/07 00:59:50;;;;;;;7.40;4.63;;;2.00;96.90;;;;;;5029193;28;20029;-52
2022/03/07 01:02:16;;;;;;;5.50;5.00;;;2.00;96.90;;;;;;5032143;28;20398;-51
2022/03/07 01:04:42;;;;;;;6.55;4.50;;;2.00;96.90;;;;;;5033339;28;20502;-54
2022/03/07 01:07:08;;;;;;;5.55;4.57;;;1.90;97.00;;;;;;5028710;28;20069;-53
2022/03/07 01:09:34;;;;;;;5.25;4.68;;;1.90;97.00;;;;;;5028378;28;20113;-52
2022/03/07 01:12:00;;;;;;;;;;;1.90;97.00;;;;;;5029925;28;20030;-52
2022/03/07 01:14:25;;;;;;;8.50;4.55;;;1.90;97.10;;;;;;5027655;28;19916;-54
2022/03/07 01:16:51;;;;;;;6.30;4.15;;;1.90;97.10;;;;;;5031528;28;20444;-54
2022/03/07 01:19:16;;;;;;;5.68;4.57;;;1.90;97.20;;;;;;5027551;28;20092;-53
2022/03/07 01:21:42;;;;;;;5.10;4.03;;;1.90;97.30;;;;;;5032785;28;20032;-54
2022/03/07 01:24:07;;;;;;;6.00;4.53;;;1.90;97.30;;;;;;5029332;28;20425;-53
2022/03/07 01:26:34;;;;;;;7.78;5.13;;;1.90;97.40;;;;;;5027966;28;20057;-53
2022/03/07 01:29:00;;;;;;;6.90;5.63;;;1.90;97.60;;;;;;5028435;28;20095;-53
2022/03/07 01:31:25;;;;;;;6.43;4.97;;;2.00;97.70;;;;;;5027498;28;20029;-51
2022/03/07 01:33:51;;;;;;;6.88;4.97;;;2.00;97.60;;;;;;5029247;28;20056;-54
2022/03/07 01:36:16;;;;;;;7.35;5.20;;;2.00;97.70;;;;;;5028687;28;20033;-53
2022/03/07 01:38:42;;;;;;;6.47;4.82;;;2.00;97.70;;;;;;5031133;28;20044;-54
2022/03/07 01:41:08;;;;;;;6.57;5.35;;;2.10;97.70;;;;;;5029593;28;20029;-51
2022/03/07 01:43:33;;;;;;;6.93;4.55;;;2.10;97.70;;;;;;5027841;28;20045;-52
2022/03/07 01:45:59;;;;;;;6.57;4.25;;;2.10;97.80;;;;;;5037627;28;20036;-54
2022/03/07 01:48:24;;;;;;;6.63;5.00;;;2.10;97.80;;;;;;5028552;28;20033;-51
2022/03/07 01:50:50;;;;;;;5.70;4.75;;;2.10;98.00;;;;;;5030317;28;20029;-51
2022/03/07 01:53:16;;;;;;;6.03;4.90;;;2.10;97.90;;;;;;5028413;28;20487;-50
2022/03/07 01:55:41;;;;;;;;;;;2.10;97.90;;;;;;5034243;28;20044;-53
2022/03/07 01:58:07;;;;;;;6.63;3.88;;;2.10;97.90;;;;;;5029972;28;20000;-51
2022/03/07 02:00:33;;;;;;;7.38;5.20;;;2.00;97.90;;;;;;5031179;28;20064;-53
2022/03/07 02:02:58;;;;;;;7.10;5.72;;;2.00;98.00;;;;;;5027753;28;20041;-53
2022/03/07 02:05:24;;;;;;;7.28;4.38;;;1.90;98.10;;;;;;5027828;28;20474;-54
2022/03/07 02:07:50;;;;;;;6.60;4.63;;;1.80;98.20;;;;;;5027728;28;20041;-50
2022/03/07 02:10:16;;;;;;;8.65;4.18;;;1.80;98.20;;;;;;5028249;28;20056;-50
2022/03/07 02:12:41;;;;;;;7.93;6.10;;;1.80;98.30;;;;;;5028730;28;20029;-53
2022/03/07 02:15:08;;;;;;;5.05;4.43;;;1.80;98.40;;;;;;5027507;28;20021;-53
2022/03/07 02:17:34;;;;;;;6.60;5.18;;;1.80;98.30;;;;;;5029037;28;20045;-51
2022/03/07 02:20:00;;;;;;;6.30;5.18;;;1.80;98.30;;;;;;5027862;28;20028;-54
2022/03/07 02:22:26;;;;;;;5.18;4.65;;;1.80;98.20;;;;;;5026597;28;20029;-50
2022/03/07 02:24:51;;;;;;;6.55;5.20;;;1.80;98.10;;;;;;5027416;28;20052;-53
2022/03/07 02:27:18;;;;;;;6.68;5.53;;;1.80;98.20;;;;;;5030743;28;20037;-53
2022/03/07 02:29:45;;;;;;;8.13;5.22;;;1.80;98.20;;;;;;5032313;28;20098;-52
2022/03/07 02:32:12;;;;;;;8.00;5.70;;;1.80;98.30;;;;;;5038609;28;20438;-50
2022/03/07 02:34:37;;;;;;;11.07;5.85;;;1.80;98.40;;;;;;5037899;28;20026;-50
2022/03/07 02:37:03;;;;;;;4.88;4.35;;;1.80;98.50;;;;;;5034613;28;20379;-50
2022/03/07 02:39:29;;;;;;;7.75;5.95;;;1.80;98.50;;;;;;5033240;28;20034;-54
2022/03/07 02:41:56;;;;;;;8.20;5.50;;;1.80;98.60;;;;;;5031320;28;20040;-53
2022/03/07 02:44:22;;;;;;;9.25;5.82;;;1.70;98.60;;;;;;5030848;28;20140;-53
2022/03/07 02:46:47;;;;;;;7.55;5.38;;;1.70;98.70;;;;;;5033210;28;20068;-52
2022/03/07 02:49:13;;;;;;;14.63;5.13;;;1.80;98.80;;;;;;5031120;28;20171;-53
2022/03/07 02:51:38;;;;;;;9.65;5.65;;;1.70;98.70;;;;;;5031371;28;20063;-52
2022/03/07 02:54:05;;;;;;;7.32;5.75;;;1.70;98.80;;;;;;5031117;28;20417;-50
2022/03/07 02:56:31;;;;;;;5.93;5.32;;;1.70;98.90;;;;;;5033680;28;20025;-49
2022/03/07 02:58:57;;;;;;;8.02;5.47;;;1.70;98.90;;;;;;5035354;28;20025;-52
2022/03/07 03:01:22;;;;;;;9.00;5.40;;;1.70;98.90;;;;;;5032042;28;20017;-53
2022/03/07 03:03:48;;;;;;;5.75;4.80;;;1.70;98.90;;;;;;5031500;28;20495;-54
2022/03/07 03:06:13;;;;;;;7.05;5.28;;;1.70;98.90;;;;;;5030911;28;20030;-53
2022/03/07 03:08:39;;;;;;;8.07;5.30;;;1.70;98.90;;;;;;5030833;28;20578;-49
2022/03/07 03:11:05;;;;;;;6.32;4.93;;;1.70;99.00;;;;;;5030731;28;20022;-53
2022/03/07 03:13:30;;;;;;;5.90;5.03;;;1.70;98.90;;;;;;5037399;28;20488;-51
2022/03/07 03:15:56;;;;;;;6.30;5.32;;;1.70;98.90;;;;;;5030935;28;20057;-50
2022/03/07 03:18:22;;;;;;;12.05;6.40;;;1.70;99.00;;;;;;5030761;28;20037;-54
2022/03/07 03:20:49;;;;;;;;;;;1.70;98.90;;;;;;5035617;28;20057;-53
2022/03/07 03:23:15;;;;;;;8.13;5.65;;;1.60;98.90;;;;;;5030528;28;19924;-53
2022/03/07 03:25:40;;;;;;;;;;;1.60;98.90;;;;;;5032085;28;20052;-53
2022/03/07 03:28:06;;;;;;;11.20;4.35;;;1.60;98.90;;;;;;5030171;28;19905;-52
2022/03/07 03:30:32;;;;;;;5.38;4.30;;;1.60;98.90;;;;;;5030139;28;20113;-52
2022/03/07 03:32:58;;;;;;;6.97;4.45;;;1.60;98.90;;;;;;5029744;28;20112;-52
2022/03/07 03:35:24;;;;;;;6.18;4.35;;;1.70;98.90;;;;;;5034017;28;20144;-54
2022/03/07 03:37:50;;;;;;;6.00;4.93;;;1.60;98.90;;;;;;5028679;28;20040;-50
2022/03/07 03:40:15;;;;;;;8.70;5.03;;;1.60;98.80;;;;;;5031006;28;20621;-54
2022/03/07 03:42:41;;;;;;;7.88;5.28;;;1.60;99.00;;;;;;5035614;28;20040;-54
2022/03/07 03:45:08;;;;;;;7.43;4.43;;;1.60;98.90;;;;;;5031401;28;20025;-54
2022/03/07 03:47:39;;;;;;;8.45;4.97;;;1.50;98.90;;;;;;5030757;28;20029;-54
2022/03/07 03:50:06;;;;;;;7.50;5.38;;;1.50;98.90;;;;;;5035590;28;20033;-53
2022/03/07 03:52:32;;;;;;;6.50;5.32;;;1.50;98.90;;;;;;5030722;28;20790;-53
2022/03/07 03:54:58;;;;;;;10.15;4.50;;;1.50;98.90;;;;;;5030968;28;20216;-53
2022/03/07 03:57:24;;;;;;;7.05;5.10;;;1.40;98.90;;;;;;5029642;28;20079;-51
2022/03/07 03:59:50;;;;;;;9.38;5.35;;;1.40;98.90;;;;;;5030644;28;20099;-52
2022/03/07 04:02:16;;;;;;;;;;;1.40;99.00;;;;;;5030869;28;20033;-53
2022/03/07 04:04:41;;;;;;;5.57;4.28;;;1.30;99.10;;;;;;5036252;28;19916;-53
2022/03/07 04:07:07;;;;;;;6.72;5.05;;;1.20;99.20;;;;;;5030610;28;20738;-54
2022/03/07 04:09:34;;;;;;;6.15;4.47;;;1.20;99.20;;;;;;5040849;28;20120;-53
2022/03/07 04:11:59;;;;;;;7.03;4.55;;;1.20;99.20;;;;;;5033303;28;20029;-53
2022/03/07 04:14:25;;;;;;;10.27;4.60;;;1.10;99.30;;;;;;5031608;28;20390;-51
2022/03/07 04:16:50;;;;;;;8.00;5.53;;;1.10;99.40;;;;;;5028963;28;20088;-54
2022/03/07 04:19:17;;;;;;;8.65;5.53;;;1.00;99.40;;;;;;5028653;28;20033;-51
2022/03/07 04:21:43;;;;;;;6.82;4.55;;;1.00;99.50;;;;;;5034533;28;20056;-52
2022/03/07 04:24:10;;;;;;;7.25;4.40;;;0.90;99.50;;;;;;5039225;28;20068;-53
2022/03/07 04:26:36;;;;;;;9.50;4.78;;;1.00;99.60;;;;;;5028813;28;20029;-54
2022/03/07 04:29:08;;;;;;;6.88;4.75;;;1.00;99.70;;;;;;5029253;28;20061;-53
2022/03/07 04:31:37;;;;;;;5.55;4.72;;;1.00;99.70;;;;;;5030004;28;20518;-52
2022/03/07 04:34:04;;;;;;;8.50;5.32;;;1.00;99.80;;;;;;5031941;28;20037;-53
2022/03/07 04:36:30;;;;;;;7.57;4.88;;;1.00;99.90;;;;;;5028561;28;20040;-52
2022/03/07 04:38:55;;;;;;;6.72;4.68;;;1.10;99.80;;;;;;5029284;28;20379;-51
2022/03/07 04:41:21;;;;;;;6.90;5.78;;;1.10;99.90;;;;;;5028290;28;20414;-53
2022/03/07 04:43:47;;;;;;;9.70;5.90;;;1.10;99.80;;;;;;5036896;28;20034;-54
2022/03/07 04:46:12;;;;;;;5.95;5.43;;;1.10;99.70;;;;;;5029269;28;20100;-53
2022/03/07 04:48:38;;;;;;;7.05;5.20;;;1.00;99.70;;;;;;5029890;28;20032;-52
2022/03/07 04:51:04;;;;;;;8.82;4.97;;;1.00;99.80;;;;;;5028649;28;20455;-51
2022/03/07 04:53:30;;;;;;;7.60;5.45;;;0.90;99.90;;;;;;5036820;28;20117;-50
2022/03/07 04:55:56;;;;;;;7.05;5.05;;;0.90;99.90;;;;;;5029680;28;20094;-53
2022/03/07 04:58:21;;;;;;;10.07;6.05;;;0.80;99.90;;;;;;5028704;28;20520;-52
2022/03/07 05:00:47;;;;;;;7.88;5.90;;;0.70;99.90;;;;;;5036852;28;20395;-50
2022/03/07 05:03:13;;;;;;;10.48;5.85;;;0.70;99.90;;;;;;5028081;28;20065;-50
2022/03/07 05:05:38;;;;;;;11.13;6.25;;;0.60;99.90;;;;;;5029066;28;20063;-49
2022/03/07 05:08:04;;;;;;;8.32;4.80;;;0.60;99.90;;;;;;5028621;28;20463;-53
2022/03/07 05:10:30;;;;;;;6.35;5.00;;;0.60;99.90;;;;;;5029307;28;20033;-53
2022/03/07 05:12:55;;;;;;;6.57;5.32;;;0.60;99.90;;;;;;5031126;28;20033;-52
2022/03/07 05:15:21;;;;;;;6.00;5.32;;;0.50;99.90;;;;;;5029529;28;20028;-52
2022/03/07 05:17:51;;;;;;;9.55;6.07;;;0.50;99.90;;;;;;5032229;28;20035;-53
2022/03/07 05:20:17;;;;;;;7.63;6.82;;;0.50;99.90;;;;;;5038049;28;20367;-54
2022/03/07 05:22:43;;;;;;;;;;;0.50;99.90;;;;;;5034928;28;20171;-54
2022/03/07 05:25:09;;;;;;;7.43;5.20;;;0.50;99.90;;;;;;5028156;28;19999;-54
2022/03/07 05:27:35;;;;;;;7.68;5.50;;;0.50;99.90;;;;;;5028370;28;20123;-54
2022/03/07 05:30:01;;;;;;;12.43;6.47;;;0.50;99.90;;;;;;5025119;28;20116;-53
2022/03/07 05:32:26;;;;;;;;;;;0.50;99.90;;;;;;5033941;28;20533;-53
2022/03/07 05:34:52;;;;;;;7.13;5.60;;;0.40;99.90;;;;;;5030616;28;20431;-50
2022/03/07 05:37:18;;;;;;;7.70;5.57;;;0.50;99.90;;;;;;5026112;28;20375;-53
2022/03/07 05:39:43;;;;;;;8.00;5.60;;;0.40;99.90;;;;;;5027758;28;20059;-53
2022/03/07 05:42:09;;;;;;;10.05;5.57;;;0.40;99.90;;;;;;5030771;28;20086;-50
2022/03/07 05:44:34;;;;;;;11.68;7.25;;;0.40;99.90;;;;;;5027082;28;20451;-51
2022/03/07 05:47:00;;;;;;;11.98;6.60;;;0.40;99.90;;;;;;5027376;28;20502;-51
2022/03/07 05:49:25;;;;;;;11.25;6.57;;;0.40;99.90;;;;;;5027235;28;20032;-50
2022/03/07 05:51:51;;;;;;;9.18;7.38;;;0.40;99.90;;;;;;5027309;28;20041;-50
2022/03/07 05:54:16;;;;;;;13.57;6.80;;;0.30;99.90;;;;;;5028553;28;20040;-54
2022/03/07 05:56:42;;;;;;;12.55;7.88;;;0.30;99.90;;;;;;5027668;28;20030;-50
2022/03/07 05:59:08;;;;;;;9.70;6.00;;;0.20;99.90;;;;;;5029771;28;20067;-51
2022/03/07 06:01:34;;;;;;;11.18;7.22;;;0.20;99.90;;;;;;5027044;28;20059;-51
2022/03/07 06:03:59;;;;;;;10.30;7.32;;;0.20;99.90;;;;;;5027280;28;20072;-50
2022/03/07 06:06:25;;;;;;;13.60;7.93;;;0.30;99.90;;;;;;5028516;28;20041;-55
2022/03/07 06:08:51;;;;;;;10.05;6.97;;;0.30;99.90;;;;;;5032769;28;20029;-51
2022/03/07 06:11:16;;;;;;;12.38;7.05;;;0.30;99.90;;;;;;5028853;28;20037;-53
2022/03/07 06:13:42;;;;;;;7.15;5.65;;;0.30;99.90;;;;;;5027227;28;20152;-52
2022/03/07 06:16:08;;;;;;;12.48;7.90;;;0.30;99.90;;;;;;5036485;28;20041;-51
2022/03/07 06:18:34;;;;;;;11.02;6.50;;;0.40;99.90;;;;;;5027518;28;20041;-52
2022/03/07 06:20:59;;;;;;;10.18;6.97;;;0.40;99.90;;;;;;5035937;28;20036;-54
2022/03/07 06:23:25;;;;;;;14.20;7.95;;;0.40;99.90;;;;;;5026984;28;20029;-51
2022/03/07 06:25:50;;;;;;;18.95;8.70;;;0.40;99.90;;;;;;5026829;28;20315;-50
2022/03/07 06:28:16;;;;;;;10.68;7.03;;;0.40;99.90;;;;;;5027357;28;20033;-51
2022/03/07 06:30:46;;;;;;;17.45;8.63;;;0.40;99.90;;;;;;5027046;28;20394;-53
2022/03/07 06:33:13;;;;;;;16.90;7.78;;;0.40;99.90;;;;;;5026613;28;20494;-53
2022/03/07 06:35:38;;;;;;;15.80;7.13;;;0.50;99.90;;;;;;5028350;28;20495;-53
2022/03/07 06:38:04;;;;;;;14.60;9.05;;;0.50;99.90;;;;;;5026309;28;20062;-53
2022/03/07 06:40:29;;;;;;;16.10;7.85;;;0.50;99.90;;;;;;5033346;28;20059;-52
2022/03/07 06:42:55;;;;;;;10.90;6.95;;;0.50;99.90;;;;;;5025752;28;20581;-53
2022/03/07 06:45:21;;;;;;;11.88;6.45;;;0.50;99.90;;;;;;5026248;28;20033;-53
2022/03/07 06:47:47;;;;;;;13.23;6.85;;;0.60;99.90;;;;;;5033170;28;20087;-53
2022/03/07 06:50:12;;;;;;;;;;;0.60;99.90;;;;;;5044517;22;20038;-54
2022/03/07 06:52:38;;;;;;;12.98;6.60;;;0.70;99.90;;;;;;5018639;28;20343;-48
2022/03/07 06:55:04;;;;;;;16.02;7.85;;;0.70;99.90;;;;;;5002818;28;20493;-51
2022/03/07 06:57:30;;;;;;;19.67;8.60;;;0.80;99.90;;;;;;5005110;28;20079;-51
2022/03/07 06:59:55;;;;;;;16.67;7.68;;;0.80;99.90;;;;;;5009181;28;20425;-52
2022/03/07 07:02:21;;;;;;;17.50;8.77;;;0.90;99.90;;;;;;5006598;28;21126;-50
2022/03/07 07:04:46;;;;;;;11.48;6.85;;;0.90;99.90;;;;;;5006608;28;20033;-53
2022/03/07 07:07:12;;;;;;;15.40;8.05;;;1.00;99.90;;;;;;5009632;28;20038;-52
2022/03/07 07:09:38;;;;;;;13.98;7.15;;;1.00;99.90;;;;;;5006314;28;20021;-53
2022/03/07 07:12:04;;;;;;;11.75;7.28;;;1.00;99.90;;;;;;5014322;28;20487;-47
2022/03/07 07:14:29;;;;;;;13.68;7.70;;;1.00;99.90;;;;;;5007363;28;20033;-50
2022/03/07 07:16:55;;;;;;;9.00;7.18;;;1.10;99.90;;;;;;5008828;28;20041;-49
2022/03/07 07:19:21;;;;;;;10.00;6.07;;;1.10;99.90;;;;;;5010701;28;20028;-54
2022/03/07 07:21:46;;;;;;;;;;;1.10;99.90;;;;;;5012849;28;20041;-53
2022/03/07 07:24:12;;;;;;;10.52;6.95;;;1.20;99.90;;;;;;5001804;28;19979;-51
2022/03/07 07:26:38;;;;;;;12.10;5.70;;;1.20;99.90;;;;;;5008364;28;20442;-52
2022/03/07 07:29:04;;;;;;;9.10;5.07;;;1.20;99.90;;;;;;5005948;28;20072;-51
2022/03/07 07:31:29;;;;;;;;;;;1.30;99.90;;;;;;5008234;28;20034;-54
2022/03/07 07:33:55;;;;;;;11.00;5.93;;;1.30;99.90;;;;;;5000466;28;19925;-50
2022/03/07 07:36:20;;;;;;;6.57;5.28;;;1.30;99.90;;;;;;5003415;28;20471;-50
2022/03/07 07:38:46;;;;;;;8.52;4.93;;;1.40;99.90;;;;;;5007715;28;20563;-52
2022/03/07 07:41:12;;;;;;;10.57;5.47;;;1.40;99.80;;;;;;5007309;28;20021;-51
2022/03/07 07:43:37;;;;;;;5.18;3.97;;;1.40;99.60;;;;;;5007617;28;20034;-47
2022/03/07 07:46:03;;;;;;;9.82;5.65;;;1.40;99.70;;;;;;5004021;28;20037;-50
2022/03/07 07:48:28;;;;;;;9.73;6.22;;;1.50;99.90;;;;;;5013973;28;20426;-50
2022/03/07 07:50:54;;;;;;;11.23;6.15;;;1.50;99.80;;;;;;5012182;28;20022;-53
2022/03/07 07:53:20;;;;;;;8.02;5.70;;;1.60;99.90;;;;;;5006247;28;20485;-48
2022/03/07 07:55:45;;;;;;;6.65;5.13;;;1.70;99.80;;;;;;5012137;28;20022;-51
2022/03/07 07:58:11;;;;;;;8.52;5.38;;;1.70;99.80;;;;;;5006685;28;20034;-54
2022/03/07 08:00:37;;;;;;;13.27;5.50;;;1.80;99.80;;;;;;5009946;28;20026;-51
2022/03/07 08:03:02;;;;;;;10.02;5.30;;;1.90;99.60;;;;;;5006024;28;20046;-48
2022/03/07 08:05:28;;;;;;;9.40;5.65;;;1.90;99.60;;;;;;5005187;28;20551;-51
2022/03/07 08:07:53;;;;;;;16.80;7.00;;;2.00;99.50;;;;;;5005330;28;20125;-49
2022/03/07 08:10:19;;;;;;;13.27;4.93;;;2.10;99.30;;;;;;5008436;28;20018;-50
2022/03/07 08:12:45;;;;;;;12.50;5.93;;;2.10;99.50;;;;;;5003932;28;20038;-48
2022/03/07 08:15:11;;;;;;;10.73;5.75;;;2.20;99.40;;;;;;5001671;28;20030;-48
2022/03/07 08:17:46;;;;;;;11.18;5.65;;;2.30;99.40;;;;;;5003830;28;20125;-48
2022/03/07 08:20:16;;;;;;;10.07;6.88;;;2.30;99.20;;;;;;5007480;28;20422;-48
2022/03/07 08:22:43;;;;;;;20.33;9.13;;;2.30;99.30;;;;;;5005509;28;20092;-47
2022/03/07 08:25:09;;;;;;;9.15;4.82;;;2.40;99.30;;;;;;5004070;28;20038;-53
2022/03/07 08:27:34;;;;;;;;;;;2.50;99.10;;;;;;5004538;28;20038;-51
2022/03/07 08:30:01;;;;;;;9.52;5.70;;;2.60;99.00;;;;;;5005577;28;20169;-49
2022/03/07 08:32:26;;;;;;;9.98;6.65;;;2.60;99.00;;;;;;5004361;28;20033;-50
2022/03/07 08:34:52;;;;;;;13.07;7.07;;;2.60;99.20;;;;;;5004719;28;20030;-51
2022/03/07 08:37:18;;;;;;;8.90;6.75;;;2.70;99.30;;;;;;5010585;28;20036;-48
2022/03/07 08:39:43;;;;;;;8.80;6.00;;;2.80;99.30;;;;;;5007216;28;20060;-55
2022/03/07 08:42:09;;;;;;;13.07;7.28;;;2.90;99.10;;;;;;5004921;28;20533;-49
2022/03/07 08:44:34;;;;;;;13.13;7.05;;;2.90;99.30;;;;;;5007721;28;20026;-48
2022/03/07 08:47:00;;;;;;;17.23;8.85;;;3.00;99.30;;;;;;5004861;28;20034;-51
2022/03/07 08:49:25;;;;;;;12.75;7.07;;;3.10;99.30;;;;;;5007514;28;20022;-48
2022/03/07 08:51:51;;;;;;;10.30;6.65;;;3.20;99.20;;;;;;5009215;28;20040;-53
2022/03/07 08:54:17;;;;;;;10.50;7.07;;;3.30;99.00;;;;;;5016606;28;20541;-48
2022/03/07 08:56:43;;;;;;;11.15;7.20;;;3.40;99.10;;;;;;5011330;28;20617;-48
2022/03/07 08:59:08;;;;;;;;;;;3.50;99.10;;;;;;5013668;28;20446;-48
2022/03/07 09:01:34;;;;;;;8.32;6.47;;;3.50;98.70;;;;;;5009957;28;19924;-50
2022/03/07 09:04:00;;;;;;;7.90;5.60;;;3.50;98.80;;;;;;5012086;28;20052;-47
2022/03/07 09:06:25;;;;;;;15.30;6.95;;;3.50;98.70;;;;;;5010174;28;20040;-48
2022/03/07 09:08:51;;;;;;;12.50;6.63;;;3.60;98.80;;;;;;5007921;28;20026;-51
2022/03/07 09:11:16;;;;;;;9.23;5.78;;;3.60;98.90;;;;;;5010142;28;20116;-50
2022/03/07 09:13:42;;;;;;;10.93;6.25;;;3.70;98.80;;;;;;5009722;28;20026;-50
2022/03/07 09:16:07;;;;;;;9.38;6.72;;;3.80;98.40;;;;;;5012018;28;20026;-51
2022/03/07 09:18:33;;;;;;;10.52;7.03;;;3.80;98.60;;;;;;5012907;28;20445;-52
2022/03/07 09:20:58;;;;;;;10.35;6.32;;;3.80;98.90;;;;;;5011794;28;20040;-49
2022/03/07 09:23:25;;;;;;;8.35;6.22;;;3.90;98.70;;;;;;5011840;28;20399;-51
2022/03/07 09:25:50;;;;;;;7.38;6.15;;;4.00;98.60;;;;;;5009246;28;20040;-51
2022/03/07 09:28:16;;;;;;;10.52;7.15;;;4.00;98.20;;;;;;5012152;28;20025;-51
2022/03/07 09:30:41;;;;;;;9.95;6.32;;;4.00;98.30;;;;;;5011534;28;20191;-54
2022/03/07 09:33:07;;;;;;;9.70;6.10;;;4.00;98.40;;;;;;5007283;28;20109;-50
2022/03/07 09:35:33;;;;;;;18.25;7.15;;;4.10;98.50;;;;;;5005927;28;20117;-50
2022/03/07 09:37:59;;;;;;;11.30;6.00;;;4.20;98.30;;;;;;5009229;28;20056;-53
2022/03/07 09:40:25;;;;;;;15.02;5.88;;;4.30;98.10;;;;;;5004674;28;20068;-52
2022/03/07 09:42:51;;;;;;;12.43;5.95;;;4.30;98.00;;;;;;5004960;28;20119;-53
2022/03/07 09:45:17;;;;;;;10.25;5.85;;;4.30;98.30;;;;;;5005854;28;20534;-52
2022/03/07 09:47:44;;;;;;;10.55;6.57;;;4.40;98.40;;;;;;5003907;28;20030;-51
2022/03/07 09:50:11;;;;;;;9.50;6.63;;;4.50;98.20;;;;;;5005595;28;20038;-50
2022/03/07 09:52:37;;;;;;;15.88;7.05;;;4.50;97.80;;;;;;5003230;28;20026;-51
2022/03/07 09:55:03;;;;;;;;;;;4.50;97.90;;;;;;5005519;28;20485;-49
2022/03/07 09:57:29;;;;;;;11.43;5.93;;;4.60;98.40;;;;;;5001550;28;19952;-54
2022/03/07 09:59:55;;;;;;;9.70;6.95;;;4.80;98.50;;;;;;5006217;28;20034;-48
2022/03/07 10:02:24;;;;;;;7.78;6.00;;;4.90;97.80;;;;;;5004655;28;20547;-52
2022/03/07 10:04:50;;;;;;;14.48;6.07;;;5.00;97.50;;;;;;5004172;28;20099;-53
2022/03/07 10:07:16;;;;;;;9.55;5.35;;;4.90;97.50;;;;;;5002793;28;20491;-54
2022/03/07 10:09:42;;;;;;;;;;;4.90;97.50;;;;;;5006380;28;20038;-49
2022/03/07 10:12:08;;;;;;;11.98;5.60;;;4.90;97.60;;;;;;5001686;28;20271;-49
2022/03/07 10:14:37;;;;;;;;;;;5.00;97.60;;;;;;5007014;28;20116;-48
2022/03/07 10:17:03;;;;;;;16.23;6.03;;;5.10;97.60;;;;;;5003237;28;20496;-50
2022/03/07 10:19:29;;;;;;;9.15;5.65;;;5.30;97.30;;;;;;5002967;28;20118;-53
2022/03/07 10:21:55;;;;;;;10.13;4.80;;;5.40;96.90;;;;;;5001537;28;20263;-52
2022/03/07 10:24:34;;;;;;;8.05;5.13;;;5.50;97.00;;;;;;5003771;28;20038;-48
2022/03/07 10:27:00;;;;;;;8.07;5.30;;;5.60;96.40;;;;;;5003128;28;20091;-50
2022/03/07 10:29:26;;;;;;;;;;;5.70;96.50;;;;;;5008717;28;20506;-54
2022/03/07 10:31:51;;;;;;;6.97;4.93;;;5.70;95.80;;;;;;5004496;28;19913;-54
2022/03/07 10:34:17;;;;;;;6.18;5.18;;;5.70;95.50;;;;;;5003930;28;20049;-50
2022/03/07 10:36:43;;;;;;;9.55;5.65;;;5.60;96.00;;;;;;5002249;28;20049;-55
2022/03/07 10:39:12;;;;;;;8.13;5.03;;;5.60;96.10;;;;;;5009724;28;20310;-51
2022/03/07 10:41:41;;;;;;;8.48;4.60;;;5.60;95.90;;;;;;5006110;28;20058;-53
2022/03/07 10:44:22;;;;;;;10.07;4.47;;;5.70;95.80;;;;;;5004873;28;20141;-54
2022/03/07 10:46:47;;;;;;;6.50;5.30;;;5.80;95.30;;;;;;5003507;28;20050;-50
2022/03/07 10:49:14;;;;;;;6.93;5.35;;;5.80;95.60;;;;;;5006827;28;20040;-51
2022/03/07 10:51:53;;;;;;;10.32;5.05;;;5.80;94.90;;;;;;5004826;28;20521;-50
2022/03/07 10:54:21;;;;;;;5.32;4.43;;;5.70;94.60;;;;;;5008418;28;20582;-53
2022/03/07 10:56:54;;;;;;;8.57;4.63;;;5.70;95.10;;;;;;5007174;28;20041;-53
2022/03/07 10:59:31;;;;;;;5.85;4.63;;;5.80;95.60;;;;;;5008482;28;20479;-51
2022/03/07 11:02:00;;;;;;;8.35;5.50;;;5.90;95.30;;;;;;5005270;28;20581;-52
2022/03/07 11:04:25;;;;;;;7.43;4.43;;;6.10;94.60;;;;;;5003020;28;20037;-52
2022/03/07 11:06:52;;;;;;;4.43;3.33;;;6.10;93.50;;;;;;5009456;28;20034;-50
2022/03/07 11:09:18;;;;;;;7.80;4.50;;;6.10;93.60;;;;;;5007849;28;20036;-54
2022/03/07 11:11:44;;;;;;;7.68;3.72;;;6.10;93.50;;;;;;5012715;28;20029;-54
2022/03/07 11:14:11;;;;;;;5.25;3.75;;;6.10;94.40;;;;;;5007341;28;20038;-51
2022/03/07 11:16:38;;;;;;;8.93;4.22;;;6.20;94.30;;;;;;5006914;28;20525;-50
2022/03/07 11:19:06;;;;;;;7.85;4.90;;;6.30;93.00;;;;;;5005612;28;20065;-51
2022/03/07 11:21:32;;;;;;;5.95;4.75;;;6.30;93.50;;;;;;5006392;28;20120;-48
2022/03/07 11:23:58;;;;;;;9.25;4.95;;;6.30;93.70;;;;;;5007597;28;20487;-52
2022/03/07 11:26:26;;;;;;;10.77;3.88;;;6.40;94.50;;;;;;5007951;28;20030;-52
2022/03/07 11:28:52;;;;;;;6.63;4.55;;;6.50;94.90;;;;;;5009927;28;20038;-51
2022/03/07 11:31:19;;;;;;;5.82;3.95;;;6.70;93.60;;;;;;5021079;28;20048;-52
2022/03/07 11:33:53;;;;;;;5.55;3.85;;;6.70;92.80;;;;;;5014620;28;20075;-51
2022/03/07 11:36:21;;;;;;;8.20;4.35;;;6.70;91.30;;;;;;5014402;28;20032;-48
2022/03/07 11:38:57;;;;;;;5.80;4.15;;;6.70;90.70;;;;;;5004202;28;20075;-53
2022/03/07 11:41:24;;;;;;;;;;;6.70;91.90;;;;;;5007206;28;20029;-52
2022/03/07 11:44:03;;;;;;;9.07;4.35;;;6.70;91.90;;;;;;5007377;28;19957;-55
2022/03/07 11:46:32;;;;;;;7.32;4.75;;;6.80;92.30;;;;;;5008494;28;20041;-49
2022/03/07 11:48:59;;;;;;;5.88;4.03;;;6.90;92.20;;;;;;5010063;28;20029;-51
2022/03/07 11:51:27;;;;;;;4.93;3.22;;;7.10;90.50;;;;;;5008172;28;20057;-55
2022/03/07 11:53:54;;;;;;;6.65;4.13;;;7.10;89.60;;;;;;5005964;28;20291;-56
2022/03/07 11:56:23;;;;;;;5.28;4.05;;;7.10;90.30;;;;;;5005364;28;20030;-51
2022/03/07 11:58:53;;;;;;;4.97;3.90;;;7.10;88.10;;;;;;5006423;28;20423;-51
2022/03/07 12:01:21;;;;;;;8.65;4.07;;;7.10;89.20;;;;;;5003913;28;20033;-50
2022/03/07 12:03:48;;;;;;;7.18;4.00;;;7.10;90.80;;;;;;5007805;28;20034;-53
2022/03/07 12:06:15;;;;;;;6.55;4.00;;;7.20;91.20;;;;;;5006703;28;20030;-54
2022/03/07 12:08:52;;;;;;;6.32;4.50;;;7.30;91.30;;;;;;5008170;28;20144;-49
2022/03/07 12:11:32;;;;;;;6.78;4.85;;;7.40;90.20;;;;;;5005880;28;20030;-52
2022/03/07 12:14:07;;;;;;;4.63;4.10;;;7.40;88.40;;;;;;5011199;28;20029;-53
2022/03/07 12:16:35;;;;;;;6.88;4.53;;;7.40;89.00;;;;;;5006429;28;20022;-54
2022/03/07 12:19:06;;;;;;;6.82;4.55;;;7.40;88.80;;;;;;5009007;28;20030;-49
2022/03/07 12:21:32;;;;;;;7.32;4.25;;;7.40;89.40;;;;;;5010400;28;20567;-51
2022/03/07 12:23:58;;;;;;;;;;;7.50;90.50;;;;;;5010663;28;20100;-51
2022/03/07 12:26:23;;;;;;;8.90;4.88;;;7.60;90.10;;;;;;5006995;28;19964;-52
2022/03/07 12:28:49;;;;;;;5.68;3.80;;;7.70;86.10;;;;;;5011477;28;20045;-51
2022/03/07 12:31:14;;;;;;;9.45;4.75;;;7.90;86.20;;;;;;5007445;28;20261;-56
2022/03/07 12:33:45;;;;;;;7.93;5.18;;;7.90;83.50;;;;;;5007034;28;20041;-49
2022/03/07 12:36:13;;;;;;;7.43;3.97;;;7.90;83.30;;;;;;5007924;28;20030;-50
2022/03/07 12:38:50;;;;;;;5.63;4.60;;;7.80;84.50;;;;;;5016759;28;20045;-53
2022/03/07 12:41:18;;;;;;;7.28;4.25;;;7.80;86.00;;;;;;5010729;28;20053;-52
2022/03/07 12:43:44;;;;;;;6.13;3.83;;;7.90;84.80;;;;;;5016437;28;20065;-55
2022/03/07 12:46:11;;;;;;;;;;;8.00;85.20;;;;;;5005291;28;20030;-52
2022/03/07 12:48:45;;;;;;;13.25;4.80;;;8.10;82.50;;;;;;5011411;28;19909;-52
2022/03/07 12:51:13;;;;;;;6.93;4.80;;;8.20;86.50;;;;;;5005612;28;20038;-50
2022/03/07 12:53:46;;;;;;;6.22;3.95;;;8.40;83.60;;;;;;5011754;28;20026;-52
2022/03/07 12:56:13;;;;;;;11.82;7.05;;;8.30;85.60;;;;;;5006174;28;20030;-54